Time;durP1;ratioP1;P1;durP2;ratioP2;P2;SDS_P1;SDS_P2;PMS_P1;PMS_P2;Temp;Humidity;BMP_temperature;BMP_pressure;BME280_temperature;BME280_humidity;BME280_pressure;Samples;Min_cycle;Max_cycle;Signal;HPM_P1;HPM_P2
2023/07/26 00:00:20;;;;;;;;;;;;;;;;;;1271345;23;19904;-20
2023/07/26 00:00:50;;;;;;;;;;;;;;;;;;1271255;23;20245;-19
2023/07/26 00:01:21;;;;;;;;;;;;;;;;;;1271731;23;19908;-18
2023/07/26 00:01:51;;;;;;;;;;;;;;;;;;1271412;23;20316;-18
2023/07/26 00:02:21;;;;;;;;;;;;;;;;;;1271556;23;19904;-21
2023/07/26 00:02:51;;;;;;;;;;;;;;;;;;1271170;23;19911;-18
2023/07/26 00:03:22;;;;;;;;;;;;;;;;;;1271676;23;19909;-21
2023/07/26 00:03:58;;;;;;;;;;;;;;;;;;1271468;23;19909;-21
2023/07/26 00:04:28;;;;;;;;;;;;;;;;;;1271706;23;19904;-20
2023/07/26 00:04:58;;;;;;;;;;;;;;;;;;1271208;23;20424;-20
2023/07/26 00:05:28;;;;;;;;;;;;;;;;;;1271560;23;19908;-20
2023/07/26 00:06:00;;;;;;;;;;;;;;;;;;1271348;23;20003;-19
2023/07/26 00:06:30;;;;;;;;;;;;;;;;;;1271646;23;19905;-19
2023/07/26 00:07:01;;;;;;;;;;;;;;;;;;1271196;23;19904;-19
2023/07/26 00:07:31;;;;;;;;;;;;;;;;;;1271701;23;19934;-19
2023/07/26 00:08:01;;;;;;;;;;;;;;;;;;1271359;23;19904;-19
2023/07/26 00:08:31;;;;;;;;;;;;;;;;;;1271646;23;19904;-20
2023/07/26 00:09:02;;;;;;;;;;;;;;;;;;1271206;23;19943;-19
2023/07/26 00:09:32;;;;;;;;;;;;;;;;;;1271755;23;20320;-17
2023/07/26 00:10:02;;;;;;;;;;;;;;;;;;1271377;23;20381;-20
2023/07/26 00:10:33;;;;;;;;;;;;;;;;;;1271524;23;19970;-19
2023/07/26 00:11:03;;;;;;;;;;;;;;;;;;1271187;23;19912;-21
2023/07/26 00:11:33;;;;;;;;;;;;;;;;;;1271730;23;19987;-21
2023/07/26 00:12:03;;;;;;;;;;;;;;;;;;1271450;23;20310;-19
2023/07/26 00:12:34;;;;;;;;;;;;;;;;;;1271681;23;19987;-21
2023/07/26 00:13:04;;;;;;;;;;;;;;;;;;1271298;23;19905;-18
2023/07/26 00:13:34;;;;;;;;;;;;;;;;;;1271700;23;19911;-21
2023/07/26 00:14:04;;;;;;;;;;;;;;;;;;1271339;23;19905;-17
2023/07/26 00:14:35;;;;;;;;;;;;;;;;;;1271646;23;19904;-21
2023/07/26 00:15:05;;;;;;;;;;;;;;;;;;1271332;23;19966;-19
2023/07/26 00:15:35;;;;;;;;;;;;;;;;;;1271550;23;19999;-21
2023/07/26 00:16:05;;;;;;;;;;;;;;;;;;1271308;23;20314;-19
2023/07/26 00:16:36;;;;;;;;;;;;;;;;;;1271566;23;19905;-22
2023/07/26 00:17:06;;;;;;;;;;;;;;;;;;1271311;23;19912;-20
2023/07/26 00:17:36;;;;;;;;;;;;;;;;;;1271686;23;20240;-21
2023/07/26 00:18:06;;;;;;;;;;;;;;;;;;1271420;23;19912;-21
2023/07/26 00:18:37;;;;;;;;;;;;;;;;;;1271534;23;20344;-21
2023/07/26 00:19:07;;;;;;;;;;;;;;;;;;1271425;23;19904;-19
2023/07/26 00:19:37;;;;;;;;;;;;;;;;;;1271496;23;19913;-21
2023/07/26 00:20:07;;;;;;;;;;;;;;;;;;1271275;23;19950;-21
2023/07/26 00:20:38;;;;;;;;;;;;;;;;;;1271495;23;19913;-20
2023/07/26 00:21:08;;;;;;;;;;;;;;;;;;1271129;23;19913;-21
2023/07/26 00:21:38;;;;;;;;;;;;;;;;;;1271567;23;19913;-22
2023/07/26 00:22:08;;;;;;;;;;;;;;;;;;1271460;23;19913;-20
2023/07/26 00:22:39;;;;;;;;;;;;;;;;;;1271430;23;20305;-19
2023/07/26 00:23:09;;;;;;;;;;;;;;;;;;1271419;23;19916;-22
2023/07/26 00:23:39;;;;;;;;;;;;;;;;;;1271277;23;19909;-21
2023/07/26 00:24:09;;;;;;;;;;;;;;;;;;1271790;23;19905;-18
2023/07/26 00:24:40;;;;;;;;;;;;;;;;;;1271475;23;20231;-19
2023/07/26 00:25:10;;;;;;;;;;;;;;;;;;1271451;23;19987;-19
2023/07/26 00:25:40;;;;;;;;;;;;;;;;;;1271699;23;19913;-17
2023/07/26 00:26:10;;;;;;;;;;;;;;;;;;1271595;23;19904;-19
2023/07/26 00:26:41;;;;;;;;;;;;;;;;;;1271619;23;20415;-20
2023/07/26 00:27:12;;;;;;;;;;;;;;;;;;1271796;23;20336;-19
2023/07/26 00:27:42;;;;;;;;;;;;;;;;;;1271678;23;20244;-17
2023/07/26 00:28:12;;;;;;;;;;;;;;;;;;1271522;23;19914;-18
2023/07/26 00:28:43;;;;;;;;;;;;;;;;;;1271407;23;19987;-17
2023/07/26 00:29:13;;;;;;;;;;;;;;;;;;1271475;23;19995;-20
2023/07/26 00:29:43;;;;;;;;;;;;;;;;;;1271676;23;20031;-18
2023/07/26 00:30:14;;;;;;;;;;;;;;;;;;1271349;23;19905;-20
2023/07/26 00:30:44;;;;;;;;;;;;;;;;;;1271375;23;19908;-17
2023/07/26 00:31:15;;;;;;;;;;;;;;;;;;1271473;23;19944;-17
2023/07/26 00:31:45;;;;;;;;;;;;;;;;;;1271630;23;20341;-18
2023/07/26 00:32:15;;;;;;;;;;;;;;;;;;1271453;23;19905;-16
2023/07/26 00:32:45;;;;;;;;;;;;;;;;;;1271443;23;19909;-16
2023/07/26 00:33:16;;;;;;;;;;;;;;;;;;1271395;23;20527;-16
2023/07/26 00:33:46;;;;;;;;;;;;;;;;;;1271639;23;20030;-14
2023/07/26 00:34:16;;;;;;;;;;;;;;;;;;1271296;23;19932;-16
2023/07/26 00:34:46;;;;;;;;;;;;;;;;;;1271436;23;19908;-19
2023/07/26 00:35:17;;;;;;;;;;;;;;;;;;1271283;23;20310;-19
2023/07/26 00:35:47;;;;;;;;;;;;;;;;;;1264853;23;19913;-18
2023/07/26 00:36:18;;;;;;;;;;;;;;;;;;1265130;23;19912;-14
2023/07/26 00:36:48;;;;;;;;;;;;;;;;;;1264820;23;19917;-19
2023/07/26 00:37:18;;;;;;;;;;;;;;;;;;1264942;23;19917;-16
2023/07/26 00:37:48;;;;;;;;;;;;;;;;;;1271446;23;19938;-17
2023/07/26 00:38:19;;;;;;;;;;;;;;;;;;1271592;23;20396;-17
2023/07/26 00:38:49;;;;;;;;;;;;;;;;;;1271068;23;19992;-18
2023/07/26 00:39:19;;;;;;;;;;;;;;;;;;1271641;23;19912;-18
2023/07/26 00:39:49;;;;;;;;;;;;;;;;;;1271434;23;19904;-18
2023/07/26 00:40:20;;;;;;;;;;;;;;;;;;1271494;23;19911;-19
2023/07/26 00:40:50;;;;;;;;;;;;;;;;;;1271051;23;19994;-17
2023/07/26 00:41:20;;;;;;;;;;;;;;;;;;1271627;23;20314;-19
2023/07/26 00:41:50;;;;;;;;;;;;;;;;;;1271359;23;19912;-17
2023/07/26 00:42:21;;;;;;;;;;;;;;;;;;1271517;23;19905;-17
2023/07/26 00:42:51;;;;;;;;;;;;;;;;;;1271222;23;19940;-15
2023/07/26 00:43:21;;;;;;;;;;;;;;;;;;1271629;23;20241;-19
2023/07/26 00:43:52;;;;;;;;;;;;;;;;;;1271424;23;19988;-17
2023/07/26 00:44:22;;;;;;;;;;;;;;;;;;1271532;23;19911;-20
2023/07/26 00:44:52;;;;;;;;;;;;;;;;;;1271210;23;19947;-15
2023/07/26 00:45:22;;;;;;;;;;;;;;;;;;1271526;23;20003;-19
2023/07/26 00:45:52;;;;;;;;;;;;;;;;;;1271390;23;20416;-16
2023/07/26 00:46:23;;;;;;;;;;;;;;;;;;1271630;23;19912;-17
2023/07/26 00:46:53;;;;;;;;;;;;;;;;;;1271136;23;19905;-19
2023/07/26 00:47:24;;;;;;;;;;;;;;;;;;1271601;23;19950;-18
2023/07/26 00:47:54;;;;;;;;;;;;;;;;;;1271391;23;19905;-18
2023/07/26 00:48:24;;;;;;;;;;;;;;;;;;1271591;23;19908;-17
2023/07/26 00:48:54;;;;;;;;;;;;;;;;;;1271135;23;19905;-17
2023/07/26 00:49:25;;;;;;;;;;;;;;;;;;1271587;23;20314;-19
2023/07/26 00:49:55;;;;;;;;;;;;;;;;;;1271445;23;19909;-18
2023/07/26 00:50:25;;;;;;;;;;;;;;;;;;1271665;23;19911;-18
2023/07/26 00:50:55;;;;;;;;;;;;;;;;;;1270898;23;19905;-16
2023/07/26 00:51:26;;;;;;;;;;;;;;;;;;1271608;23;19912;-16
2023/07/26 00:51:56;;;;;;;;;;;;;;;;;;1270177;23;19911;-17
2023/07/26 00:52:26;;;;;;;;;;;;;;;;;;1269612;23;19905;-15
2023/07/26 00:52:56;;;;;;;;;;;;;;;;;;1271093;23;19904;-17
2023/07/26 00:53:27;;;;;;;;;;;;;;;;;;1271250;23;19904;-19
2023/07/26 00:53:57;;;;;;;;;;;;;;;;;;1271143;23;19992;-18
2023/07/26 00:54:27;;;;;;;;;;;;;;;;;;1271610;23;20045;-16
2023/07/26 00:54:58;;;;;;;;;;;;;;;;;;1271165;23;19935;-17
2023/07/26 00:55:28;;;;;;;;;;;;;;;;;;1271524;23;20241;-18
2023/07/26 00:55:59;;;;;;;;;;;;;;;;;;1271315;23;19995;-16
2023/07/26 00:56:29;;;;;;;;;;;;;;;;;;1271455;23;19909;-18
2023/07/26 00:57:00;;;;;;;;;;;;;;;;;;1271139;23;19905;-17
2023/07/26 00:57:30;;;;;;;;;;;;;;;;;;1271549;23;19908;-19
2023/07/26 00:58:00;;;;;;;;;;;;;;;;;;1271290;23;20321;-16
2023/07/26 00:58:31;;;;;;;;;;;;;;;;;;1271640;23;19908;-18
2023/07/26 00:59:01;;;;;;;;;;;;;;;;;;1271060;23;19904;-16
2023/07/26 00:59:31;;;;;;;;;;;;;;;;;;1271616;23;19939;-19
2023/07/26 01:00:01;;;;;;;;;;;;;;;;;;1271182;23;19905;-17
2023/07/26 01:00:32;;;;;;;;;;;;;;;;;;1271258;23;19914;-19
2023/07/26 01:01:03;;;;;;;;;;;;;;;;;;1271139;23;19907;-16
2023/07/26 01:01:33;;;;;;;;;;;;;;;;;;1271490;23;20217;-15
2023/07/26 01:02:04;;;;;;;;;;;;;;;;;;1271186;23;19905;-16
2023/07/26 01:02:34;;;;;;;;;;;;;;;;;;1271596;23;19913;-17
2023/07/26 01:03:04;;;;;;;;;;;;;;;;;;1271266;23;19909;-16
2023/07/26 01:03:34;;;;;;;;;;;;;;;;;;1271477;23;19909;-17
2023/07/26 01:04:05;;;;;;;;;;;;;;;;;;1271223;23;19905;-17
2023/07/26 01:04:35;;;;;;;;;;;;;;;;;;1271360;23;19905;-17
2023/07/26 01:05:05;;;;;;;;;;;;;;;;;;1271065;23;19905;-17
2023/07/26 01:05:35;;;;;;;;;;;;;;;;;;1271503;23;19909;-15
2023/07/26 01:06:06;;;;;;;;;;;;;;;;;;1271020;23;19934;-18
2023/07/26 01:06:36;;;;;;;;;;;;;;;;;;1271519;23;20245;-19
2023/07/26 01:07:08;;;;;;;;;;;;;;;;;;1271197;23;19905;-15
2023/07/26 01:07:38;;;;;;;;;;;;;;;;;;1271472;23;19928;-17
2023/07/26 01:08:09;;;;;;;;;;;;;;;;;;1271110;23;19947;-18
2023/07/26 01:08:39;;;;;;;;;;;;;;;;;;1271328;23;19913;-14
2023/07/26 01:09:09;;;;;;;;;;;;;;;;;;1271477;23;19904;-15
2023/07/26 01:09:41;;;;;;;;;;;;;;;;;;1271557;23;19908;-15
2023/07/26 01:10:11;;;;;;;;;;;;;;;;;;1271329;23;20241;-17
2023/07/26 01:10:41;;;;;;;;;;;;;;;;;;1271316;23;19908;-16
2023/07/26 01:11:12;;;;;;;;;;;;;;;;;;1271399;23;19912;-16
2023/07/26 01:11:42;;;;;;;;;;;;;;;;;;1271519;23;19917;-17
2023/07/26 01:12:12;;;;;;;;;;;;;;;;;;1271461;23;19946;-19
2023/07/26 01:12:42;;;;;;;;;;;;;;;;;;1271430;23;19999;-20
2023/07/26 01:13:13;;;;;;;;;;;;;;;;;;1271274;23;19904;-15
2023/07/26 01:13:43;;;;;;;;;;;;;;;;;;1271606;23;19999;-17
2023/07/26 01:14:14;;;;;;;;;;;;;;;;;;1271326;23;19944;-20
2023/07/26 01:14:44;;;;;;;;;;;;;;;;;;1271320;23;19999;-16
2023/07/26 01:15:14;;;;;;;;;;;;;;;;;;1271294;23;19965;-17
2023/07/26 01:15:45;;;;;;;;;;;;;;;;;;1271402;23;19951;-14
2023/07/26 01:16:15;;;;;;;;;;;;;;;;;;1271409;23;19995;-19
2023/07/26 01:16:45;;;;;;;;;;;;;;;;;;1271158;23;19999;-18
2023/07/26 01:17:15;;;;;;;;;;;;;;;;;;1264860;23;20285;-17
2023/07/26 01:17:45;;;;;;;;;;;;;;;;;;1265091;23;19999;-19
2023/07/26 01:18:16;;;;;;;;;;;;;;;;;;1264876;23;19992;-16
2023/07/26 01:18:46;;;;;;;;;;;;;;;;;;1264914;23;20257;-14
2023/07/26 01:19:16;;;;;;;;;;;;;;;;;;1271282;23;20058;-16
2023/07/26 01:19:46;;;;;;;;;;;;;;;;;;1271574;23;19915;-15
2023/07/26 01:20:17;;;;;;;;;;;;;;;;;;1271126;23;19991;-18
2023/07/26 01:20:47;;;;;;;;;;;;;;;;;;1271166;23;20002;-15
2023/07/26 01:21:17;;;;;;;;;;;;;;;;;;1271437;23;19912;-18
2023/07/26 01:21:47;;;;;;;;;;;;;;;;;;1271398;23;19916;-17
2023/07/26 01:22:18;;;;;;;;;;;;;;;;;;1271403;23;20317;-18
2023/07/26 01:22:48;;;;;;;;;;;;;;;;;;1271325;23;20144;-19
2023/07/26 01:23:18;;;;;;;;;;;;;;;;;;1271444;23;19913;-17
2023/07/26 01:23:48;;;;;;;;;;;;;;;;;;1271063;23;20237;-16
2023/07/26 01:24:19;;;;;;;;;;;;;;;;;;1271557;23;19913;-17
2023/07/26 01:24:49;;;;;;;;;;;;;;;;;;1270626;23;20402;-16
2023/07/26 01:25:19;;;;;;;;;;;;;;;;;;1271003;23;20007;-16
2023/07/26 01:25:49;;;;;;;;;;;;;;;;;;1271370;23;19911;-16
2023/07/26 01:26:20;;;;;;;;;;;;;;;;;;1271390;23;20292;-15
2023/07/26 01:26:50;;;;;;;;;;;;;;;;;;1271122;23;19905;-18
2023/07/26 01:27:20;;;;;;;;;;;;;;;;;;1271349;23;19975;-17
2023/07/26 01:27:50;;;;;;;;;;;;;;;;;;1271351;23;19943;-17
2023/07/26 01:28:21;;;;;;;;;;;;;;;;;;1271085;23;19939;-19
2023/07/26 01:28:51;;;;;;;;;;;;;;;;;;1271093;23;19928;-18
2023/07/26 01:29:21;;;;;;;;;;;;;;;;;;1271314;23;19904;-21
2023/07/26 01:29:55;;;;;;;;;;;;;;;;;;1271274;23;19905;-18
2023/07/26 01:30:29;;;;;;;;;;;;;;;;;;1271482;23;19911;-22
2023/07/26 01:30:59;;;;;;;;;;;;;;;;;;1270844;23;20419;-21
2023/07/26 01:31:29;;;;;;;;;;;;;;;;;;1270973;23;19930;-19
2023/07/26 01:31:59;;;;;;;;;;;;;;;;;;1271289;23;19905;-20
2023/07/26 01:32:30;;;;;;;;;;;;;;;;;;1271370;23;19912;-21
2023/07/26 01:33:00;;;;;;;;;;;;;;;;;;1270954;23;20344;-22
2023/07/26 01:33:30;;;;;;;;;;;;;;;;;;1271349;23;20033;-18
2023/07/26 01:34:00;;;;;;;;;;;;;;;;;;1270915;23;19936;-21
2023/07/26 01:34:31;;;;;;;;;;;;;;;;;;1271448;23;19940;-17
2023/07/26 01:35:01;;;;;;;;;;;;;;;;;;1270969;23;19936;-20
2023/07/26 01:35:31;;;;;;;;;;;;;;;;;;1271300;23;19912;-19
2023/07/26 01:36:01;;;;;;;;;;;;;;;;;;1270810;23;19908;-20
2023/07/26 01:36:32;;;;;;;;;;;;;;;;;;1271572;23;19905;-19
2023/07/26 01:37:02;;;;;;;;;;;;;;;;;;1271019;23;20335;-19
2023/07/26 01:37:32;;;;;;;;;;;;;;;;;;1271518;23;19991;-20
2023/07/26 01:38:02;;;;;;;;;;;;;;;;;;1271173;23;19974;-18
2023/07/26 01:38:33;;;;;;;;;;;;;;;;;;1270653;23;19905;-19
2023/07/26 01:39:03;;;;;;;;;;;;;;;;;;1271101;23;19911;-20
2023/07/26 01:39:33;;;;;;;;;;;;;;;;;;1271438;23;19987;-21
2023/07/26 01:40:03;;;;;;;;;;;;;;;;;;1271253;23;20354;-21
2023/07/26 01:40:34;;;;;;;;;;;;;;;;;;1271247;23;19955;-19
2023/07/26 01:41:04;;;;;;;;;;;;;;;;;;1270972;23;20003;-19
2023/07/26 01:41:34;;;;;;;;;;;;;;;;;;1270854;23;20368;-19
2023/07/26 01:42:04;;;;;;;;;;;;;;;;;;1271260;23;19905;-23
2023/07/26 01:42:34;;;;;;;;;;;;;;;;;;1271451;23;19911;-20
2023/07/26 01:43:05;;;;;;;;;;;;;;;;;;1271211;23;19999;-20
2023/07/26 01:43:35;;;;;;;;;;;;;;;;;;1271510;23;20285;-19
2023/07/26 01:44:05;;;;;;;;;;;;;;;;;;1271252;23;19904;-20
2023/07/26 01:44:36;;;;;;;;;;;;;;;;;;1271280;23;20321;-18
2023/07/26 01:45:06;;;;;;;;;;;;;;;;;;1271004;23;20039;-18
2023/07/26 01:45:36;;;;;;;;;;;;;;;;;;1271333;23;20283;-20
2023/07/26 01:46:07;;;;;;;;;;;;;;;;;;1271237;23;20235;-20
2023/07/26 01:46:37;;;;;;;;;;;;;;;;;;1271318;23;19995;-20
2023/07/26 01:47:07;;;;;;;;;;;;;;;;;;1271183;23;19990;-20
2023/07/26 01:47:37;;;;;;;;;;;;;;;;;;1271431;23;20396;-21
2023/07/26 01:48:08;;;;;;;;;;;;;;;;;;1270579;23;19915;-19
2023/07/26 01:48:38;;;;;;;;;;;;;;;;;;1271256;23;19935;-19
2023/07/26 01:49:08;;;;;;;;;;;;;;;;;;1271274;23;19912;-19
2023/07/26 01:49:39;;;;;;;;;;;;;;;;;;1271172;23;19948;-20
2023/07/26 01:50:09;;;;;;;;;;;;;;;;;;1271072;23;19912;-20
2023/07/26 01:50:39;;;;;;;;;;;;;;;;;;1271038;23;19909;-20
2023/07/26 01:51:09;;;;;;;;;;;;;;;;;;1271142;23;20321;-16
2023/07/26 01:51:40;;;;;;;;;;;;;;;;;;1271213;23;19931;-22
2023/07/26 01:52:10;;;;;;;;;;;;;;;;;;1271305;23;19904;-22
2023/07/26 01:52:40;;;;;;;;;;;;;;;;;;1271414;23;19931;-20
2023/07/26 01:53:10;;;;;;;;;;;;;;;;;;1271774;23;19904;-21
2023/07/26 01:53:41;;;;;;;;;;;;;;;;;;1271644;23;19916;-22
2023/07/26 01:54:12;;;;;;;;;;;;;;;;;;1271574;23;19911;-21
2023/07/26 01:54:42;;;;;;;;;;;;;;;;;;1271197;23;19970;-21
2023/07/26 01:55:12;;;;;;;;;;;;;;;;;;1271203;23;19912;-22
2023/07/26 01:55:43;;;;;;;;;;;;;;;;;;1271232;23;19923;-20
2023/07/26 01:56:13;;;;;;;;;;;;;;;;;;1270997;23;19905;-20
2023/07/26 01:56:43;;;;;;;;;;;;;;;;;;1270392;23;19916;-19
2023/07/26 01:57:14;;;;;;;;;;;;;;;;;;1271195;23;20348;-18
2023/07/26 01:57:44;;;;;;;;;;;;;;;;;;1271416;23;19908;-18
2023/07/26 01:58:14;;;;;;;;;;;;;;;;;;1264684;23;19980;-18
2023/07/26 01:58:44;;;;;;;;;;;;;;;;;;1264768;23;19909;-21
2023/07/26 01:59:15;;;;;;;;;;;;;;;;;;1264781;23;19911;-20
2023/07/26 01:59:45;;;;;;;;;;;;;;;;;;1264819;23;19995;-19
2023/07/26 02:00:15;;;;;;;;;;;;;;;;;;1271223;23;19905;-20
2023/07/26 02:00:45;;;;;;;;;;;;;;;;;;1264373;23;19964;-22
2023/07/26 02:01:16;;;;;;;;;;;;;;;;;;1264688;23;19905;-19
2023/07/26 02:01:46;;;;;;;;;;;;;;;;;;1264921;23;20406;-20
2023/07/26 02:02:16;;;;;;;;;;;;;;;;;;1264652;23;20237;-22
2023/07/26 02:02:46;;;;;;;;;;;;;;;;;;1270303;23;19909;-20
2023/07/26 02:03:17;;;;;;;;;;;;;;;;;;1270839;23;19905;-20
2023/07/26 02:03:47;;;;;;;;;;;;;;;;;;1271038;23;20313;-21
2023/07/26 02:04:17;;;;;;;;;;;;;;;;;;1271064;23;19905;-21
2023/07/26 02:04:48;;;;;;;;;;;;;;;;;;1270974;23;20340;-21
2023/07/26 02:05:18;;;;;;;;;;;;;;;;;;1271193;23;19911;-19
2023/07/26 02:05:48;;;;;;;;;;;;;;;;;;1270638;23;19913;-21
2023/07/26 02:06:19;;;;;;;;;;;;;;;;;;1270977;23;19913;-19
2023/07/26 02:06:49;;;;;;;;;;;;;;;;;;1270442;23;19904;-22
2023/07/26 02:07:20;;;;;;;;;;;;;;;;;;1271440;23;19909;-20
2023/07/26 02:07:50;;;;;;;;;;;;;;;;;;1270288;23;19909;-20
2023/07/26 02:08:21;;;;;;;;;;;;;;;;;;1271045;23;19940;-16
2023/07/26 02:08:51;;;;;;;;;;;;;;;;;;1270767;23;19934;-17
2023/07/26 02:09:22;;;;;;;;;;;;;;;;;;1271348;23;19911;-22
2023/07/26 02:09:52;;;;;;;;;;;;;;;;;;1271098;23;19911;-17
2023/07/26 02:10:22;;;;;;;;;;;;;;;;;;1271304;23;19911;-17
2023/07/26 02:10:53;;;;;;;;;;;;;;;;;;1264398;23;19924;-19
2023/07/26 02:11:23;;;;;;;;;;;;;;;;;;1264976;23;19991;-20
2023/07/26 02:11:53;;;;;;;;;;;;;;;;;;1264605;23;20349;-22
2023/07/26 02:12:24;;;;;;;;;;;;;;;;;;1264704;23;19909;-21
2023/07/26 02:12:54;;;;;;;;;;;;;;;;;;1270966;23;19905;-18
2023/07/26 02:13:24;;;;;;;;;;;;;;;;;;1271465;23;19911;-22
2023/07/26 02:13:54;;;;;;;;;;;;;;;;;;1271083;23;19998;-20
2023/07/26 02:14:25;;;;;;;;;;;;;;;;;;1270279;23;20557;-22
2023/07/26 02:14:55;;;;;;;;;;;;;;;;;;1270175;23;19905;-20
2023/07/26 02:15:25;;;;;;;;;;;;;;;;;;1270527;23;19927;-17
2023/07/26 02:15:55;;;;;;;;;;;;;;;;;;1270943;23;19912;-22
2023/07/26 02:16:26;;;;;;;;;;;;;;;;;;1271076;23;19930;-20
2023/07/26 02:16:56;;;;;;;;;;;;;;;;;;1270169;23;20492;-19
2023/07/26 02:17:26;;;;;;;;;;;;;;;;;;1271365;23;19904;-18
2023/07/26 02:17:57;;;;;;;;;;;;;;;;;;1270660;23;20363;-22
2023/07/26 02:18:27;;;;;;;;;;;;;;;;;;1270912;23;19987;-19
2023/07/26 02:18:57;;;;;;;;;;;;;;;;;;1270939;23;19908;-20
2023/07/26 02:19:28;;;;;;;;;;;;;;;;;;1271132;23;20322;-21
2023/07/26 02:19:58;;;;;;;;;;;;;;;;;;1270944;23;20253;-18
2023/07/26 02:20:28;;;;;;;;;;;;;;;;;;1270642;23;19909;-20
2023/07/26 02:20:58;;;;;;;;;;;;;;;;;;1270839;23;19919;-22
2023/07/26 02:21:29;;;;;;;;;;;;;;;;;;1271233;23;20022;-18
2023/07/26 02:21:59;;;;;;;;;;;;;;;;;;1271084;23;20389;-22
2023/07/26 02:22:29;;;;;;;;;;;;;;;;;;1271385;23;20414;-17
2023/07/26 02:23:00;;;;;;;;;;;;;;;;;;1270841;23;19905;-21
2023/07/26 02:23:30;;;;;;;;;;;;;;;;;;1271268;23;19991;-18
2023/07/26 02:24:00;;;;;;;;;;;;;;;;;;1270638;23;19991;-22
2023/07/26 02:24:30;;;;;;;;;;;;;;;;;;1271218;23;20275;-23
2023/07/26 02:25:01;;;;;;;;;;;;;;;;;;1270385;23;19939;-20
2023/07/26 02:25:31;;;;;;;;;;;;;;;;;;1270810;23;19909;-22
2023/07/26 02:26:01;;;;;;;;;;;;;;;;;;1270968;23;19987;-18
2023/07/26 02:26:31;;;;;;;;;;;;;;;;;;1269294;23;19991;-17
2023/07/26 02:27:01;;;;;;;;;;;;;;;;;;1270826;23;20340;-17
2023/07/26 02:27:32;;;;;;;;;;;;;;;;;;1271303;23;19951;-20
2023/07/26 02:28:02;;;;;;;;;;;;;;;;;;1271032;23;19904;-21
2023/07/26 02:28:32;;;;;;;;;;;;;;;;;;1271156;23;19905;-17
2023/07/26 02:29:02;;;;;;;;;;;;;;;;;;1270972;23;19943;-19
2023/07/26 02:29:34;;;;;;;;;;;;;;;;;;1271348;23;19966;-20
2023/07/26 02:30:04;;;;;;;;;;;;;;;;;;1270886;23;19978;-21
2023/07/26 02:30:35;;;;;;;;;;;;;;;;;;1271112;23;19954;-19
2023/07/26 02:31:05;;;;;;;;;;;;;;;;;;1270975;23;19995;-19
2023/07/26 02:31:35;;;;;;;;;;;;;;;;;;1271430;23;19954;-21
2023/07/26 02:32:05;;;;;;;;;;;;;;;;;;1270897;23;19905;-20
2023/07/26 02:32:36;;;;;;;;;;;;;;;;;;1271261;23;20317;-18
2023/07/26 02:33:06;;;;;;;;;;;;;;;;;;1270899;23;19987;-22
2023/07/26 02:33:36;;;;;;;;;;;;;;;;;;1271404;23;19905;-19
2023/07/26 02:34:06;;;;;;;;;;;;;;;;;;1270955;23;19936;-16
2023/07/26 02:34:37;;;;;;;;;;;;;;;;;;1271308;23;19905;-17
2023/07/26 02:35:08;;;;;;;;;;;;;;;;;;1271060;23;20665;-19
2023/07/26 02:35:38;;;;;;;;;;;;;;;;;;1271141;23;19913;-16
2023/07/26 02:36:08;;;;;;;;;;;;;;;;;;1271066;23;20218;-19
2023/07/26 02:36:39;;;;;;;;;;;;;;;;;;1271189;23;19912;-16
2023/07/26 02:37:09;;;;;;;;;;;;;;;;;;1271218;23;19905;-15
2023/07/26 02:37:39;;;;;;;;;;;;;;;;;;1271293;23;19915;-19
2023/07/26 02:38:10;;;;;;;;;;;;;;;;;;1270949;23;20382;-18
2023/07/26 02:38:41;;;;;;;;;;;;;;;;;;1270980;23;19983;-19
2023/07/26 02:39:11;;;;;;;;;;;;;;;;;;1271087;23;19905;-17
2023/07/26 02:39:41;;;;;;;;;;;;;;;;;;1271269;23;19995;-16
2023/07/26 02:40:11;;;;;;;;;;;;;;;;;;1271073;23;19933;-21
2023/07/26 02:40:41;;;;;;;;;;;;;;;;;;1271075;23;19916;-17
2023/07/26 02:41:12;;;;;;;;;;;;;;;;;;1271104;23;20318;-18
2023/07/26 02:41:42;;;;;;;;;;;;;;;;;;1271216;23;19922;-15
2023/07/26 02:42:12;;;;;;;;;;;;;;;;;;1271217;23;19905;-19
2023/07/26 02:42:43;;;;;;;;;;;;;;;;;;1264517;23;19909;-20
2023/07/26 02:43:13;;;;;;;;;;;;;;;;;;1264754;23;20363;-18
2023/07/26 02:43:43;;;;;;;;;;;;;;;;;;1264981;23;19916;-19
2023/07/26 02:44:13;;;;;;;;;;;;;;;;;;1264759;23;19905;-19
2023/07/26 02:44:44;;;;;;;;;;;;;;;;;;1271352;23;20275;-17
2023/07/26 02:45:14;;;;;;;;;;;;;;;;;;1271423;23;19991;-18
2023/07/26 02:45:44;;;;;;;;;;;;;;;;;;1271562;23;19940;-20
2023/07/26 02:46:14;;;;;;;;;;;;;;;;;;1271449;23;19943;-17
2023/07/26 02:46:45;;;;;;;;;;;;;;;;;;1271464;23;20333;-20
2023/07/26 02:47:15;;;;;;;;;;;;;;;;;;1271451;23;19905;-16
2023/07/26 02:47:45;;;;;;;;;;;;;;;;;;1271572;23;19908;-19
2023/07/26 02:48:15;;;;;;;;;;;;;;;;;;1271471;23;19905;-19
2023/07/26 02:48:45;;;;;;;;;;;;;;;;;;1271335;23;19908;-19
2023/07/26 02:49:16;;;;;;;;;;;;;;;;;;1271564;23;20242;-19
2023/07/26 02:49:46;;;;;;;;;;;;;;;;;;1271505;23;19913;-18
2023/07/26 02:50:17;;;;;;;;;;;;;;;;;;1271396;23;19982;-15
2023/07/26 02:50:47;;;;;;;;;;;;;;;;;;1271345;23;19943;-17
2023/07/26 02:51:17;;;;;;;;;;;;;;;;;;1271385;23;20385;-16
2023/07/26 02:51:47;;;;;;;;;;;;;;;;;;1271502;23;19973;-17
2023/07/26 02:52:18;;;;;;;;;;;;;;;;;;1264877;23;19905;-18
2023/07/26 02:52:48;;;;;;;;;;;;;;;;;;1264965;23;19936;-19
2023/07/26 02:53:18;;;;;;;;;;;;;;;;;;1265117;23;19936;-20
2023/07/26 02:53:49;;;;;;;;;;;;;;;;;;1264632;23;19935;-19
2023/07/26 02:54:19;;;;;;;;;;;;;;;;;;1271749;23;20313;-17
2023/07/26 02:54:49;;;;;;;;;;;;;;;;;;1271275;23;19935;-19
2023/07/26 02:55:19;;;;;;;;;;;;;;;;;;1271734;23;19943;-18
2023/07/26 02:55:50;;;;;;;;;;;;;;;;;;1271278;23;19917;-17
2023/07/26 02:56:20;;;;;;;;;;;;;;;;;;1271685;23;19912;-18
2023/07/26 02:56:50;;;;;;;;;;;;;;;;;;1271268;23;19920;-15
2023/07/26 02:57:20;;;;;;;;;;;;;;;;;;1271741;23;19912;-16
2023/07/26 02:57:51;;;;;;;;;;;;;;;;;;1271429;23;20282;-20
2023/07/26 02:58:21;;;;;;;;;;;;;;;;;;1271792;23;19905;-19
2023/07/26 02:58:51;;;;;;;;;;;;;;;;;;1269678;23;19915;-17
2023/07/26 02:59:21;;;;;;;;;;;;;;;;;;1271462;23;19982;-16
2023/07/26 02:59:51;;;;;;;;;;;;;;;;;;1271383;23;20327;-17
2023/07/26 03:00:22;;;;;;;;;;;;;;;;;;1271714;23;19936;-19
2023/07/26 03:00:53;;;;;;;;;;;;;;;;;;1271169;23;19904;-19
2023/07/26 03:01:23;;;;;;;;;;;;;;;;;;1271686;23;19909;-17
2023/07/26 03:01:53;;;;;;;;;;;;;;;;;;1271424;23;19912;-17
2023/07/26 03:02:24;;;;;;;;;;;;;;;;;;1271551;23;19912;-18
2023/07/26 03:02:54;;;;;;;;;;;;;;;;;;1271155;23;19911;-18
2023/07/26 03:03:24;;;;;;;;;;;;;;;;;;1271663;23;20276;-18
2023/07/26 03:03:54;;;;;;;;;;;;;;;;;;1271291;23;19911;-18
2023/07/26 03:04:25;;;;;;;;;;;;;;;;;;1271048;23;19991;-18
2023/07/26 03:04:55;;;;;;;;;;;;;;;;;;1271073;23;19927;-19
2023/07/26 03:05:25;;;;;;;;;;;;;;;;;;1271560;23;19905;-21
2023/07/26 03:05:55;;;;;;;;;;;;;;;;;;1271220;23;19911;-16
2023/07/26 03:06:26;;;;;;;;;;;;;;;;;;1271588;23;19950;-19
2023/07/26 03:06:56;;;;;;;;;;;;;;;;;;1271032;23;19904;-18
2023/07/26 03:07:27;;;;;;;;;;;;;;;;;;1271633;23;20343;-17
2023/07/26 03:07:57;;;;;;;;;;;;;;;;;;1271226;23;19987;-20
2023/07/26 03:08:27;;;;;;;;;;;;;;;;;;1271567;23;19904;-21
2023/07/26 03:08:57;;;;;;;;;;;;;;;;;;1271044;23;19911;-21
2023/07/26 03:09:28;;;;;;;;;;;;;;;;;;1271643;23;19991;-18
2023/07/26 03:09:58;;;;;;;;;;;;;;;;;;1271330;23;19991;-19
2023/07/26 03:10:28;;;;;;;;;;;;;;;;;;1271670;23;19995;-19
2023/07/26 03:10:58;;;;;;;;;;;;;;;;;;1271069;23;20332;-21
2023/07/26 03:11:29;;;;;;;;;;;;;;;;;;1271650;23;20001;-17
2023/07/26 03:11:59;;;;;;;;;;;;;;;;;;1271343;23;19944;-21
2023/07/26 03:12:29;;;;;;;;;;;;;;;;;;1271571;23;20416;-18
2023/07/26 03:12:59;;;;;;;;;;;;;;;;;;1270802;23;20375;-19
2023/07/26 03:13:29;;;;;;;;;;;;;;;;;;1271663;23;19904;-21
2023/07/26 03:14:00;;;;;;;;;;;;;;;;;;1271363;23;19905;-17
2023/07/26 03:14:30;;;;;;;;;;;;;;;;;;1271496;23;20345;-19
2023/07/26 03:15:00;;;;;;;;;;;;;;;;;;1270988;23;19987;-20
2023/07/26 03:15:31;;;;;;;;;;;;;;;;;;1271493;23;19991;-19
2023/07/26 03:16:01;;;;;;;;;;;;;;;;;;1271035;23;19940;-19
2023/07/26 03:16:31;;;;;;;;;;;;;;;;;;1271081;23;19905;-20
2023/07/26 03:17:01;;;;;;;;;;;;;;;;;;1271040;23;19927;-17
2023/07/26 03:17:32;;;;;;;;;;;;;;;;;;1271555;23;19905;-19
2023/07/26 03:18:03;;;;;;;;;;;;;;;;;;1271044;23;19916;-20
2023/07/26 03:18:34;;;;;;;;;;;;;;;;;;1271418;23;19905;-21
2023/07/26 03:19:04;;;;;;;;;;;;;;;;;;1271095;23;20510;-17
2023/07/26 03:19:34;;;;;;;;;;;;;;;;;;1271528;23;20311;-18
2023/07/26 03:20:05;;;;;;;;;;;;;;;;;;1271116;23;19954;-18
2023/07/26 03:20:35;;;;;;;;;;;;;;;;;;1271334;23;19940;-19
2023/07/26 03:21:05;;;;;;;;;;;;;;;;;;1271023;23;19904;-19
2023/07/26 03:21:35;;;;;;;;;;;;;;;;;;1271638;23;19911;-21
2023/07/26 03:22:06;;;;;;;;;;;;;;;;;;1271202;23;19987;-20
2023/07/26 03:22:36;;;;;;;;;;;;;;;;;;1271186;23;19912;-19
2023/07/26 03:23:06;;;;;;;;;;;;;;;;;;1271111;23;19905;-19
2023/07/26 03:23:36;;;;;;;;;;;;;;;;;;1271413;23;20405;-19
2023/07/26 03:24:07;;;;;;;;;;;;;;;;;;1271244;23;19948;-20
2023/07/26 03:24:37;;;;;;;;;;;;;;;;;;1264810;23;19933;-19
2023/07/26 03:25:07;;;;;;;;;;;;;;;;;;1264720;23;19909;-20
2023/07/26 03:25:37;;;;;;;;;;;;;;;;;;1265292;23;20078;-18
2023/07/26 03:26:08;;;;;;;;;;;;;;;;;;1264884;23;19937;-22
2023/07/26 03:26:38;;;;;;;;;;;;;;;;;;1271176;23;20055;-18
2023/07/26 03:27:08;;;;;;;;;;;;;;;;;;1270403;23;20056;-18